sensor_id;sensor_type;location;lat;lon;timestamp;P1;durP1;ratioP1;P2;durP2;ratioP2
11191;SDS011;5652;48.406;10.820;2023-12-07T00:01:59;39.53;;;27.07;;
11191;SDS011;5652;48.406;10.820;2023-12-07T00:04:26;40.90;;;26.42;;
11191;SDS011;5652;48.406;10.820;2023-12-07T00:06:54;44.70;;;28.67;;
11191;SDS011;5652;48.406;10.820;2023-12-07T00:09:21;40.10;;;27.27;;
11191;SDS011;5652;48.406;10.820;2023-12-07T00:11:48;39.78;;;26.27;;
11191;SDS011;5652;48.406;10.820;2023-12-07T00:14:15;41.08;;;27.02;;
11191;SDS011;5652;48.406;10.820;2023-12-07T00:16:44;40.40;;;26.58;;
11191;SDS011;5652;48.406;10.820;2023-12-07T00:19:11;39.75;;;26.60;;
11191;SDS011;5652;48.406;10.820;2023-12-07T00:21:39;39.28;;;26.15;;
11191;SDS011;5652;48.406;10.820;2023-12-07T00:24:07;38.38;;;25.63;;
11191;SDS011;5652;48.406;10.820;2023-12-07T00:26:34;40.50;;;27.07;;
11191;SDS011;5652;48.406;10.820;2023-12-07T00:29:01;42.75;;;26.15;;
11191;SDS011;5652;48.406;10.820;2023-12-07T00:31:28;41.65;;;26.35;;
11191;SDS011;5652;48.406;10.820;2023-12-07T00:33:56;41.40;;;26.80;;
11191;SDS011;5652;48.406;10.820;2023-12-07T00:36:23;39.20;;;26.20;;
11191;SDS011;5652;48.406;10.820;2023-12-07T00:38:51;37.40;;;25.13;;
11191;SDS011;5652;48.406;10.820;2023-12-07T00:41:18;36.33;;;25.23;;
11191;SDS011;5652;48.406;10.820;2023-12-07T00:43:45;39.47;;;26.00;;
11191;SDS011;5652;48.406;10.820;2023-12-07T00:46:13;37.22;;;24.88;;
11191;SDS011;5652;48.406;10.820;2023-12-07T00:48:40;36.55;;;24.88;;
11191;SDS011;5652;48.406;10.820;2023-12-07T00:51:09;34.53;;;23.67;;
11191;SDS011;5652;48.406;10.820;2023-12-07T00:53:36;33.38;;;24.10;;
11191;SDS011;5652;48.406;10.820;2023-12-07T00:56:04;36.40;;;24.00;;
11191;SDS011;5652;48.406;10.820;2023-12-07T00:58:31;36.33;;;24.33;;
11191;SDS011;5652;48.406;10.820;2023-12-07T01:00:58;32.30;;;23.45;;
11191;SDS011;5652;48.406;10.820;2023-12-07T01:03:25;34.03;;;23.73;;
11191;SDS011;5652;48.406;10.820;2023-12-07T01:05:52;33.75;;;23.80;;
11191;SDS011;5652;48.406;10.820;2023-12-07T01:08:21;32.20;;;22.95;;
11191;SDS011;5652;48.406;10.820;2023-12-07T01:10:48;33.42;;;24.10;;
11191;SDS011;5652;48.406;10.820;2023-12-07T01:13:15;31.20;;;23.05;;
11191;SDS011;5652;48.406;10.820;2023-12-07T01:15:42;31.75;;;23.45;;
11191;SDS011;5652;48.406;10.820;2023-12-07T01:18:10;31.27;;;23.13;;
11191;SDS011;5652;48.406;10.820;2023-12-07T01:20:37;31.77;;;22.77;;
11191;SDS011;5652;48.406;10.820;2023-12-07T01:23:05;31.88;;;22.63;;
11191;SDS011;5652;48.406;10.820;2023-12-07T01:25:35;30.23;;;22.40;;
11191;SDS011;5652;48.406;10.820;2023-12-07T01:28:02;31.17;;;21.75;;
11191;SDS011;5652;48.406;10.820;2023-12-07T01:30:29;30.52;;;22.35;;
11191;SDS011;5652;48.406;10.820;2023-12-07T01:32:56;28.77;;;21.33;;
11191;SDS011;5652;48.406;10.820;2023-12-07T01:35:23;29.27;;;21.57;;
11191;SDS011;5652;48.406;10.820;2023-12-07T01:37:50;29.33;;;21.42;;
11191;SDS011;5652;48.406;10.820;2023-12-07T01:40:17;29.65;;;21.95;;
11191;SDS011;5652;48.406;10.820;2023-12-07T01:42:52;30.52;;;22.77;;
11191;SDS011;5652;48.406;10.820;2023-12-07T01:45:20;30.05;;;22.58;;
11191;SDS011;5652;48.406;10.820;2023-12-07T01:47:47;30.53;;;22.90;;
11191;SDS011;5652;48.406;10.820;2023-12-07T01:50:16;28.08;;;21.63;;
11191;SDS011;5652;48.406;10.820;2023-12-07T01:52:48;31.10;;;22.03;;
11191;SDS011;5652;48.406;10.820;2023-12-07T01:55:16;29.67;;;21.45;;
11191;SDS011;5652;48.406;10.820;2023-12-07T01:57:44;29.15;;;20.95;;
11191;SDS011;5652;48.406;10.820;2023-12-07T02:00:13;27.70;;;20.25;;
11191;SDS011;5652;48.406;10.820;2023-12-07T02:02:41;30.83;;;21.98;;
11191;SDS011;5652;48.406;10.820;2023-12-07T02:05:08;25.65;;;20.10;;
11191;SDS011;5652;48.406;10.820;2023-12-07T02:07:35;25.65;;;20.70;;
11191;SDS011;5652;48.406;10.820;2023-12-07T02:10:03;26.17;;;19.98;;
11191;SDS011;5652;48.406;10.820;2023-12-07T02:12:31;24.60;;;19.30;;
11191;SDS011;5652;48.406;10.820;2023-12-07T02:14:58;25.50;;;19.40;;
11191;SDS011;5652;48.406;10.820;2023-12-07T02:17:28;24.55;;;20.02;;
11191;SDS011;5652;48.406;10.820;2023-12-07T02:20:01;29.55;;;22.65;;
11191;SDS011;5652;48.406;10.820;2023-12-07T02:22:32;43.63;;;28.35;;
11191;SDS011;5652;48.406;10.820;2023-12-07T02:25:04;39.05;;;27.27;;
11191;SDS011;5652;48.406;10.820;2023-12-07T02:27:34;32.03;;;22.50;;
11191;SDS011;5652;48.406;10.820;2023-12-07T02:30:01;28.73;;;21.73;;
11191;SDS011;5652;48.406;10.820;2023-12-07T02:32:29;26.70;;;20.20;;
11191;SDS011;5652;48.406;10.820;2023-12-07T02:34:56;26.73;;;20.23;;
11191;SDS011;5652;48.406;10.820;2023-12-07T02:37:24;25.52;;;19.67;;
11191;SDS011;5652;48.406;10.820;2023-12-07T02:39:53;25.80;;;19.50;;
11191;SDS011;5652;48.406;10.820;2023-12-07T02:42:21;24.63;;;19.60;;
11191;SDS011;5652;48.406;10.820;2023-12-07T02:44:51;25.52;;;19.75;;
11191;SDS011;5652;48.406;10.820;2023-12-07T02:47:18;24.90;;;19.97;;
11191;SDS011;5652;48.406;10.820;2023-12-07T02:49:45;24.63;;;19.15;;
11191;SDS011;5652;48.406;10.820;2023-12-07T02:52:13;23.67;;;18.20;;
11191;SDS011;5652;48.406;10.820;2023-12-07T02:54:40;23.38;;;18.63;;
11191;SDS011;5652;48.406;10.820;2023-12-07T02:57:07;21.10;;;17.60;;
11191;SDS011;5652;48.406;10.820;2023-12-07T02:59:34;22.98;;;17.50;;
11191;SDS011;5652;48.406;10.820;2023-12-07T03:02:03;20.80;;;17.27;;
11191;SDS011;5652;48.406;10.820;2023-12-07T03:04:30;22.63;;;17.67;;
11191;SDS011;5652;48.406;10.820;2023-12-07T03:06:58;21.25;;;17.02;;
11191;SDS011;5652;48.406;10.820;2023-12-07T03:09:25;21.55;;;17.55;;
11191;SDS011;5652;48.406;10.820;2023-12-07T03:11:52;21.27;;;17.00;;
11191;SDS011;5652;48.406;10.820;2023-12-07T03:14:19;21.77;;;17.30;;
11191;SDS011;5652;48.406;10.820;2023-12-07T03:16:46;20.90;;;17.20;;
11191;SDS011;5652;48.406;10.820;2023-12-07T03:19:14;22.02;;;17.50;;
11191;SDS011;5652;48.406;10.820;2023-12-07T03:21:42;21.95;;;17.50;;
11191;SDS011;5652;48.406;10.820;2023-12-07T03:24:09;21.58;;;17.38;;
11191;SDS011;5652;48.406;10.820;2023-12-07T03:26:36;22.00;;;17.60;;
11191;SDS011;5652;48.406;10.820;2023-12-07T03:29:05;21.58;;;16.95;;
11191;SDS011;5652;48.406;10.820;2023-12-07T03:31:32;22.23;;;17.50;;
11191;SDS011;5652;48.406;10.820;2023-12-07T03:33:59;20.02;;;16.80;;
11191;SDS011;5652;48.406;10.820;2023-12-07T03:36:28;22.77;;;17.85;;
11191;SDS011;5652;48.406;10.820;2023-12-07T03:38:55;21.65;;;17.30;;
11191;SDS011;5652;48.406;10.820;2023-12-07T03:44:25;22.80;;;17.63;;
11191;SDS011;5652;48.406;10.820;2023-12-07T03:46:53;24.75;;;19.75;;
11191;SDS011;5652;48.406;10.820;2023-12-07T03:49:20;23.98;;;19.45;;
11191;SDS011;5652;48.406;10.820;2023-12-07T03:51:48;22.23;;;18.13;;
11191;SDS011;5652;48.406;10.820;2023-12-07T03:54:15;22.57;;;18.10;;
11191;SDS011;5652;48.406;10.820;2023-12-07T03:56:42;24.35;;;18.88;;
11191;SDS011;5652;48.406;10.820;2023-12-07T03:59:09;24.73;;;18.98;;
11191;SDS011;5652;48.406;10.820;2023-12-07T04:01:36;24.95;;;18.63;;
11191;SDS011;5652;48.406;10.820;2023-12-07T04:04:03;26.02;;;19.33;;
11191;SDS011;5652;48.406;10.820;2023-12-07T04:06:31;27.50;;;19.58;;
11191;SDS011;5652;48.406;10.820;2023-12-07T04:08:59;23.40;;;18.70;;
11191;SDS011;5652;48.406;10.820;2023-12-07T04:11:26;26.48;;;20.45;;
11191;SDS011;5652;48.406;10.820;2023-12-07T04:13:53;25.50;;;19.75;;
11191;SDS011;5652;48.406;10.820;2023-12-07T04:16:20;26.98;;;20.33;;
11191;SDS011;5652;48.406;10.820;2023-12-07T04:18:48;26.80;;;19.73;;
11191;SDS011;5652;48.406;10.820;2023-12-07T04:21:15;24.98;;;19.10;;
11191;SDS011;5652;48.406;10.820;2023-12-07T04:23:42;25.80;;;19.20;;
11191;SDS011;5652;48.406;10.820;2023-12-07T04:29:05;33.83;;;23.92;;
11191;SDS011;5652;48.406;10.820;2023-12-07T04:31:32;31.83;;;23.10;;
11191;SDS011;5652;48.406;10.820;2023-12-07T04:34:00;30.63;;;22.13;;
11191;SDS011;5652;48.406;10.820;2023-12-07T04:36:28;31.05;;;22.08;;
11191;SDS011;5652;48.406;10.820;2023-12-07T04:38:55;33.58;;;24.40;;
11191;SDS011;5652;48.406;10.820;2023-12-07T04:41:22;31.17;;;23.27;;
11191;SDS011;5652;48.406;10.820;2023-12-07T04:43:49;32.50;;;24.35;;
11191;SDS011;5652;48.406;10.820;2023-12-07T04:46:17;32.63;;;21.47;;
11191;SDS011;5652;48.406;10.820;2023-12-07T04:48:45;27.07;;;20.63;;
11191;SDS011;5652;48.406;10.820;2023-12-07T04:51:12;29.40;;;21.65;;
11191;SDS011;5652;48.406;10.820;2023-12-07T04:53:39;31.60;;;21.08;;
11191;SDS011;5652;48.406;10.820;2023-12-07T04:56:06;28.95;;;20.33;;
11191;SDS011;5652;48.406;10.820;2023-12-07T04:58:33;27.35;;;20.45;;
11191;SDS011;5652;48.406;10.820;2023-12-07T05:01:01;28.13;;;19.98;;
11191;SDS011;5652;48.406;10.820;2023-12-07T05:03:30;28.23;;;20.80;;
11191;SDS011;5652;48.406;10.820;2023-12-07T05:05:58;30.05;;;20.92;;
11191;SDS011;5652;48.406;10.820;2023-12-07T05:08:25;28.58;;;20.80;;
11191;SDS011;5652;48.406;10.820;2023-12-07T05:10:53;29.25;;;20.90;;
11191;SDS011;5652;48.406;10.820;2023-12-07T05:13:20;33.60;;;22.27;;
11191;SDS011;5652;48.406;10.820;2023-12-07T05:15:47;27.42;;;19.90;;
11191;SDS011;5652;48.406;10.820;2023-12-07T05:18:14;32.75;;;21.10;;
11191;SDS011;5652;48.406;10.820;2023-12-07T05:20:42;29.30;;;20.25;;
11191;SDS011;5652;48.406;10.820;2023-12-07T05:23:10;32.97;;;22.02;;
11191;SDS011;5652;48.406;10.820;2023-12-07T05:25:37;33.67;;;23.35;;
11191;SDS011;5652;48.406;10.820;2023-12-07T05:28:04;33.58;;;23.42;;
11191;SDS011;5652;48.406;10.820;2023-12-07T05:30:31;35.53;;;23.52;;
11191;SDS011;5652;48.406;10.820;2023-12-07T05:32:58;31.30;;;22.63;;
11191;SDS011;5652;48.406;10.820;2023-12-07T05:35:25;29.17;;;21.43;;
11191;SDS011;5652;48.406;10.820;2023-12-07T05:37:54;29.95;;;21.48;;
11191;SDS011;5652;48.406;10.820;2023-12-07T05:40:21;25.98;;;18.35;;
11191;SDS011;5652;48.406;10.820;2023-12-07T05:42:49;28.73;;;19.20;;
11191;SDS011;5652;48.406;10.820;2023-12-07T05:45:16;28.80;;;19.77;;
11191;SDS011;5652;48.406;10.820;2023-12-07T05:47:44;28.05;;;19.35;;
11191;SDS011;5652;48.406;10.820;2023-12-07T05:50:11;26.13;;;18.63;;
11191;SDS011;5652;48.406;10.820;2023-12-07T05:52:38;28.17;;;19.38;;
11191;SDS011;5652;48.406;10.820;2023-12-07T05:55:07;32.92;;;19.90;;
11191;SDS011;5652;48.406;10.820;2023-12-07T05:57:34;27.27;;;19.20;;
11191;SDS011;5652;48.406;10.820;2023-12-07T06:00:02;27.30;;;19.65;;
11191;SDS011;5652;48.406;10.820;2023-12-07T06:02:28;28.42;;;19.88;;
11191;SDS011;5652;48.406;10.820;2023-12-07T06:04:56;29.63;;;19.87;;
11191;SDS011;5652;48.406;10.820;2023-12-07T06:07:23;25.65;;;18.80;;
11191;SDS011;5652;48.406;10.820;2023-12-07T06:09:50;27.73;;;19.70;;
11191;SDS011;5652;48.406;10.820;2023-12-07T06:12:19;26.17;;;19.13;;
11191;SDS011;5652;48.406;10.820;2023-12-07T06:14:47;27.30;;;19.38;;
11191;SDS011;5652;48.406;10.820;2023-12-07T06:17:14;26.88;;;19.17;;
11191;SDS011;5652;48.406;10.820;2023-12-07T06:19:41;25.40;;;19.00;;
11191;SDS011;5652;48.406;10.820;2023-12-07T06:22:09;25.63;;;19.08;;
11191;SDS011;5652;48.406;10.820;2023-12-07T06:24:38;26.80;;;19.77;;
11191;SDS011;5652;48.406;10.820;2023-12-07T06:27:06;27.10;;;19.77;;
11191;SDS011;5652;48.406;10.820;2023-12-07T06:29:36;27.85;;;19.70;;
11191;SDS011;5652;48.406;10.820;2023-12-07T06:32:04;25.92;;;18.52;;
11191;SDS011;5652;48.406;10.820;2023-12-07T06:34:32;26.48;;;19.35;;
11191;SDS011;5652;48.406;10.820;2023-12-07T06:36:59;29.13;;;19.27;;
11191;SDS011;5652;48.406;10.820;2023-12-07T06:39:26;27.70;;;19.13;;
11191;SDS011;5652;48.406;10.820;2023-12-07T06:41:53;24.60;;;17.83;;
11191;SDS011;5652;48.406;10.820;2023-12-07T06:44:20;28.35;;;19.98;;
11191;SDS011;5652;48.406;10.820;2023-12-07T06:46:49;27.00;;;19.42;;
11191;SDS011;5652;48.406;10.820;2023-12-07T06:49:16;27.17;;;19.08;;
11191;SDS011;5652;48.406;10.820;2023-12-07T06:51:44;27.25;;;19.92;;
11191;SDS011;5652;48.406;10.820;2023-12-07T06:54:11;28.67;;;19.90;;
11191;SDS011;5652;48.406;10.820;2023-12-07T06:56:38;26.58;;;20.02;;
11191;SDS011;5652;48.406;10.820;2023-12-07T06:59:06;27.02;;;19.10;;
11191;SDS011;5652;48.406;10.820;2023-12-07T07:01:34;25.67;;;19.50;;
11191;SDS011;5652;48.406;10.820;2023-12-07T07:04:02;27.58;;;19.35;;
11191;SDS011;5652;48.406;10.820;2023-12-07T07:06:32;29.15;;;20.90;;
11191;SDS011;5652;48.406;10.820;2023-12-07T07:09:00;30.83;;;21.45;;
11191;SDS011;5652;48.406;10.820;2023-12-07T07:11:27;28.95;;;20.70;;
11191;SDS011;5652;48.406;10.820;2023-12-07T07:13:54;28.55;;;21.05;;
11191;SDS011;5652;48.406;10.820;2023-12-07T07:16:22;26.98;;;19.90;;
11191;SDS011;5652;48.406;10.820;2023-12-07T07:18:49;25.27;;;17.63;;
11191;SDS011;5652;48.406;10.820;2023-12-07T07:21:18;22.42;;;16.73;;
11191;SDS011;5652;48.406;10.820;2023-12-07T07:23:45;23.50;;;16.77;;
11191;SDS011;5652;48.406;10.820;2023-12-07T07:26:12;20.95;;;16.55;;
11191;SDS011;5652;48.406;10.820;2023-12-07T07:28:42;21.75;;;15.77;;
11191;SDS011;5652;48.406;10.820;2023-12-07T07:31:09;20.15;;;16.05;;
11191;SDS011;5652;48.406;10.820;2023-12-07T07:33:36;19.85;;;16.00;;
11191;SDS011;5652;48.406;10.820;2023-12-07T07:36:03;20.02;;;15.75;;
11191;SDS011;5652;48.406;10.820;2023-12-07T07:38:32;29.88;;;20.65;;
11191;SDS011;5652;48.406;10.820;2023-12-07T07:40:59;21.05;;;15.25;;
11191;SDS011;5652;48.406;10.820;2023-12-07T07:43:30;19.27;;;13.30;;
11191;SDS011;5652;48.406;10.820;2023-12-07T07:45:59;16.17;;;12.30;;
11191;SDS011;5652;48.406;10.820;2023-12-07T07:48:26;14.43;;;10.68;;
11191;SDS011;5652;48.406;10.820;2023-12-07T07:50:53;14.20;;;10.57;;
11191;SDS011;5652;48.406;10.820;2023-12-07T07:53:20;13.88;;;10.63;;
11191;SDS011;5652;48.406;10.820;2023-12-07T07:55:49;12.65;;;10.70;;
11191;SDS011;5652;48.406;10.820;2023-12-07T07:58:16;15.07;;;11.87;;
11191;SDS011;5652;48.406;10.820;2023-12-07T08:00:43;13.02;;;11.00;;
11191;SDS011;5652;48.406;10.820;2023-12-07T08:03:11;13.73;;;11.23;;
11191;SDS011;5652;48.406;10.820;2023-12-07T08:05:38;12.45;;;10.15;;
11191;SDS011;5652;48.406;10.820;2023-12-07T08:08:05;11.15;;;9.00;;
11191;SDS011;5652;48.406;10.820;2023-12-07T08:10:34;11.52;;;9.43;;
11191;SDS011;5652;48.406;10.820;2023-12-07T08:13:02;11.50;;;9.43;;
11191;SDS011;5652;48.406;10.820;2023-12-07T08:15:29;13.70;;;10.98;;
11191;SDS011;5652;48.406;10.820;2023-12-07T08:17:57;11.13;;;8.73;;
11191;SDS011;5652;48.406;10.820;2023-12-07T08:20:24;10.70;;;9.27;;
11191;SDS011;5652;48.406;10.820;2023-12-07T08:22:52;11.73;;;9.65;;
11191;SDS011;5652;48.406;10.820;2023-12-07T08:25:20;12.50;;;9.37;;
11191;SDS011;5652;48.406;10.820;2023-12-07T08:27:47;14.63;;;11.05;;
11191;SDS011;5652;48.406;10.820;2023-12-07T08:30:15;12.07;;;9.53;;
11191;SDS011;5652;48.406;10.820;2023-12-07T08:32:43;12.52;;;10.50;;
11191;SDS011;5652;48.406;10.820;2023-12-07T08:35:11;11.13;;;9.55;;
11191;SDS011;5652;48.406;10.820;2023-12-07T08:37:38;10.05;;;8.45;;
11191;SDS011;5652;48.406;10.820;2023-12-07T08:40:05;11.43;;;8.52;;
11191;SDS011;5652;48.406;10.820;2023-12-07T08:42:32;10.00;;;8.40;;
11191;SDS011;5652;48.406;10.820;2023-12-07T08:44:59;14.48;;;8.52;;
11191;SDS011;5652;48.406;10.820;2023-12-07T08:47:28;10.52;;;8.50;;
11191;SDS011;5652;48.406;10.820;2023-12-07T08:49:56;11.52;;;8.82;;
11191;SDS011;5652;48.406;10.820;2023-12-07T08:52:23;10.27;;;8.52;;
11191;SDS011;5652;48.406;10.820;2023-12-07T08:54:50;9.50;;;8.13;;
11191;SDS011;5652;48.406;10.820;2023-12-07T08:57:18;9.25;;;7.95;;
11191;SDS011;5652;48.406;10.820;2023-12-07T08:59:45;9.35;;;8.35;;
11191;SDS011;5652;48.406;10.820;2023-12-07T09:02:12;9.35;;;8.25;;
11191;SDS011;5652;48.406;10.820;2023-12-07T09:04:40;8.90;;;8.00;;
11191;SDS011;5652;48.406;10.820;2023-12-07T09:07:07;9.88;;;8.40;;
11191;SDS011;5652;48.406;10.820;2023-12-07T09:09:36;10.73;;;8.57;;
11191;SDS011;5652;48.406;10.820;2023-12-07T09:12:03;10.02;;;8.30;;
11191;SDS011;5652;48.406;10.820;2023-12-07T09:14:30;8.77;;;7.77;;
11191;SDS011;5652;48.406;10.820;2023-12-07T09:16:58;9.65;;;8.45;;
11191;SDS011;5652;48.406;10.820;2023-12-07T09:19:25;9.70;;;8.52;;
11191;SDS011;5652;48.406;10.820;2023-12-07T09:21:53;11.63;;;9.10;;
11191;SDS011;5652;48.406;10.820;2023-12-07T09:24:20;9.43;;;8.30;;
11191;SDS011;5652;48.406;10.820;2023-12-07T09:26:47;9.48;;;8.23;;
11191;SDS011;5652;48.406;10.820;2023-12-07T09:29:15;9.02;;;7.95;;
11191;SDS011;5652;48.406;10.820;2023-12-07T09:31:42;8.93;;;7.45;;
11191;SDS011;5652;48.406;10.820;2023-12-07T09:34:09;10.33;;;8.03;;
11191;SDS011;5652;48.406;10.820;2023-12-07T09:36:36;9.70;;;7.97;;
11191;SDS011;5652;48.406;10.820;2023-12-07T09:39:05;8.53;;;7.60;;
11191;SDS011;5652;48.406;10.820;2023-12-07T09:41:32;9.82;;;8.20;;
11191;SDS011;5652;48.406;10.820;2023-12-07T09:44:00;11.15;;;8.07;;
11191;SDS011;5652;48.406;10.820;2023-12-07T09:46:28;10.00;;;7.80;;
11191;SDS011;5652;48.406;10.820;2023-12-07T09:48:57;8.80;;;7.90;;
11191;SDS011;5652;48.406;10.820;2023-12-07T09:51:24;9.75;;;8.57;;
11191;SDS011;5652;48.406;10.820;2023-12-07T09:53:52;9.32;;;8.32;;
11191;SDS011;5652;48.406;10.820;2023-12-07T09:56:21;12.32;;;8.60;;
11191;SDS011;5652;48.406;10.820;2023-12-07T09:58:48;10.90;;;8.55;;
11191;SDS011;5652;48.406;10.820;2023-12-07T10:01:15;10.10;;;8.43;;
11191;SDS011;5652;48.406;10.820;2023-12-07T10:03:42;9.93;;;8.13;;
11191;SDS011;5652;48.406;10.820;2023-12-07T10:06:12;8.77;;;7.63;;
11191;SDS011;5652;48.406;10.820;2023-12-07T10:08:39;11.55;;;8.30;;
11191;SDS011;5652;48.406;10.820;2023-12-07T10:11:06;9.40;;;8.17;;
11191;SDS011;5652;48.406;10.820;2023-12-07T10:13:35;9.32;;;8.00;;
11191;SDS011;5652;48.406;10.820;2023-12-07T10:16:07;9.50;;;8.38;;
11191;SDS011;5652;48.406;10.820;2023-12-07T10:18:34;9.10;;;7.80;;
11191;SDS011;5652;48.406;10.820;2023-12-07T10:21:02;9.18;;;8.07;;
11191;SDS011;5652;48.406;10.820;2023-12-07T10:23:29;9.07;;;7.72;;
11191;SDS011;5652;48.406;10.820;2023-12-07T10:25:58;9.55;;;7.93;;
11191;SDS011;5652;48.406;10.820;2023-12-07T10:28:25;8.70;;;7.57;;
11191;SDS011;5652;48.406;10.820;2023-12-07T10:30:54;9.65;;;8.30;;
11191;SDS011;5652;48.406;10.820;2023-12-07T10:33:21;10.80;;;8.20;;
11191;SDS011;5652;48.406;10.820;2023-12-07T10:35:48;10.02;;;8.27;;
11191;SDS011;5652;48.406;10.820;2023-12-07T10:38:15;9.27;;;7.85;;
11191;SDS011;5652;48.406;10.820;2023-12-07T10:40:43;9.15;;;7.97;;
11191;SDS011;5652;48.406;10.820;2023-12-07T10:43:11;8.65;;;7.47;;
11191;SDS011;5652;48.406;10.820;2023-12-07T10:45:39;10.35;;;8.18;;
11191;SDS011;5652;48.406;10.820;2023-12-07T10:48:11;9.43;;;7.53;;
11191;SDS011;5652;48.406;10.820;2023-12-07T10:50:40;9.20;;;7.90;;
11191;SDS011;5652;48.406;10.820;2023-12-07T10:53:09;9.30;;;7.85;;
11191;SDS011;5652;48.406;10.820;2023-12-07T10:55:38;9.27;;;7.90;;
11191;SDS011;5652;48.406;10.820;2023-12-07T10:58:08;8.57;;;7.47;;
11191;SDS011;5652;48.406;10.820;2023-12-07T11:00:37;8.60;;;7.60;;
11191;SDS011;5652;48.406;10.820;2023-12-07T11:03:05;9.32;;;8.07;;
11191;SDS011;5652;48.406;10.820;2023-12-07T11:05:33;10.60;;;8.38;;
11191;SDS011;5652;48.406;10.820;2023-12-07T11:08:02;10.52;;;8.90;;
11191;SDS011;5652;48.406;10.820;2023-12-07T11:10:34;11.10;;;9.35;;
11191;SDS011;5652;48.406;10.820;2023-12-07T11:13:05;10.50;;;8.50;;
11191;SDS011;5652;48.406;10.820;2023-12-07T11:15:35;11.23;;;9.57;;
11191;SDS011;5652;48.406;10.820;2023-12-07T11:18:02;11.05;;;9.15;;
11191;SDS011;5652;48.406;10.820;2023-12-07T11:20:40;10.18;;;8.60;;
11191;SDS011;5652;48.406;10.820;2023-12-07T11:23:09;8.98;;;8.07;;
11191;SDS011;5652;48.406;10.820;2023-12-07T11:25:36;11.00;;;7.68;;
11191;SDS011;5652;48.406;10.820;2023-12-07T11:28:04;8.82;;;7.93;;
11191;SDS011;5652;48.406;10.820;2023-12-07T11:30:32;9.00;;;7.78;;
11191;SDS011;5652;48.406;10.820;2023-12-07T11:32:59;10.00;;;8.03;;
11191;SDS011;5652;48.406;10.820;2023-12-07T11:35:26;10.82;;;7.68;;
11191;SDS011;5652;48.406;10.820;2023-12-07T11:38:05;8.43;;;7.20;;
11191;SDS011;5652;48.406;10.820;2023-12-07T11:40:36;7.20;;;5.80;;
11191;SDS011;5652;48.406;10.820;2023-12-07T11:43:03;5.65;;;4.60;;
11191;SDS011;5652;48.406;10.820;2023-12-07T11:45:36;6.18;;;5.40;;
11191;SDS011;5652;48.406;10.820;2023-12-07T11:48:10;8.38;;;6.53;;
11191;SDS011;5652;48.406;10.820;2023-12-07T11:53:22;7.47;;;6.50;;
11191;SDS011;5652;48.406;10.820;2023-12-07T11:55:49;6.23;;;5.63;;
11191;SDS011;5652;48.406;10.820;2023-12-07T11:58:18;6.43;;;5.57;;
11191;SDS011;5652;48.406;10.820;2023-12-07T12:00:45;6.18;;;4.40;;
11191;SDS011;5652;48.406;10.820;2023-12-07T12:03:13;4.70;;;4.00;;
11191;SDS011;5652;48.406;10.820;2023-12-07T12:05:40;4.28;;;3.40;;
11191;SDS011;5652;48.406;10.820;2023-12-07T12:08:09;4.43;;;3.60;;
11191;SDS011;5652;48.406;10.820;2023-12-07T12:10:37;5.90;;;4.20;;
11191;SDS011;5652;48.406;10.820;2023-12-07T12:13:05;6.22;;;4.30;;
11191;SDS011;5652;48.406;10.820;2023-12-07T12:15:32;4.32;;;3.70;;
11191;SDS011;5652;48.406;10.820;2023-12-07T12:17:59;3.90;;;3.50;;
11191;SDS011;5652;48.406;10.820;2023-12-07T12:20:27;3.90;;;3.40;;
11191;SDS011;5652;48.406;10.820;2023-12-07T12:22:55;4.25;;;3.30;;
11191;SDS011;5652;48.406;10.820;2023-12-07T12:25:22;4.22;;;3.30;;
11191;SDS011;5652;48.406;10.820;2023-12-07T12:27:52;4.47;;;3.30;;
11191;SDS011;5652;48.406;10.820;2023-12-07T12:30:19;4.57;;;3.53;;
11191;SDS011;5652;48.406;10.820;2023-12-07T12:32:47;4.38;;;3.42;;
11191;SDS011;5652;48.406;10.820;2023-12-07T12:35:15;5.15;;;4.20;;
11191;SDS011;5652;48.406;10.820;2023-12-07T12:37:43;5.00;;;4.50;;
11191;SDS011;5652;48.406;10.820;2023-12-07T12:40:10;6.00;;;4.65;;
11191;SDS011;5652;48.406;10.820;2023-12-07T12:42:40;5.65;;;4.80;;
11191;SDS011;5652;48.406;10.820;2023-12-07T12:45:10;6.22;;;5.32;;
11191;SDS011;5652;48.406;10.820;2023-12-07T12:47:37;5.95;;;5.10;;
11191;SDS011;5652;48.406;10.820;2023-12-07T12:50:05;5.95;;;4.95;;
11191;SDS011;5652;48.406;10.820;2023-12-07T12:52:33;5.45;;;4.57;;
11191;SDS011;5652;48.406;10.820;2023-12-07T12:55:01;5.75;;;4.65;;
11191;SDS011;5652;48.406;10.820;2023-12-07T12:57:28;6.15;;;4.68;;
11191;SDS011;5652;48.406;10.820;2023-12-07T12:59:57;8.67;;;5.60;;
11191;SDS011;5652;48.406;10.820;2023-12-07T13:02:29;6.55;;;5.22;;
11191;SDS011;5652;48.406;10.820;2023-12-07T13:04:56;7.38;;;5.00;;
11191;SDS011;5652;48.406;10.820;2023-12-07T13:07:24;8.05;;;4.93;;
11191;SDS011;5652;48.406;10.820;2023-12-07T13:09:51;5.90;;;4.65;;
11191;SDS011;5652;48.406;10.820;2023-12-07T13:12:19;5.55;;;4.40;;
11191;SDS011;5652;48.406;10.820;2023-12-07T13:14:47;6.68;;;5.10;;
11191;SDS011;5652;48.406;10.820;2023-12-07T13:17:14;3.45;;;2.42;;
11191;SDS011;5652;48.406;10.820;2023-12-07T13:19:43;2.97;;;2.33;;
11191;SDS011;5652;48.406;10.820;2023-12-07T13:22:11;3.78;;;2.50;;
11191;SDS011;5652;48.406;10.820;2023-12-07T13:24:38;3.05;;;2.50;;
11191;SDS011;5652;48.406;10.820;2023-12-07T13:27:05;3.10;;;2.50;;
11191;SDS011;5652;48.406;10.820;2023-12-07T13:29:32;3.55;;;2.30;;
11191;SDS011;5652;48.406;10.820;2023-12-07T13:31:59;3.47;;;2.25;;
11191;SDS011;5652;48.406;10.820;2023-12-07T13:34:27;2.35;;;2.10;;
11191;SDS011;5652;48.406;10.820;2023-12-07T13:36:56;3.50;;;2.30;;
11191;SDS011;5652;48.406;10.820;2023-12-07T13:39:23;2.63;;;2.33;;
11191;SDS011;5652;48.406;10.820;2023-12-07T13:41:51;3.45;;;2.45;;
11191;SDS011;5652;48.406;10.820;2023-12-07T13:44:19;3.45;;;2.70;;
11191;SDS011;5652;48.406;10.820;2023-12-07T13:46:46;3.57;;;2.60;;
11191;SDS011;5652;48.406;10.820;2023-12-07T13:49:13;3.35;;;2.72;;
11191;SDS011;5652;48.406;10.820;2023-12-07T13:51:40;3.08;;;2.72;;
11191;SDS011;5652;48.406;10.820;2023-12-07T13:54:09;3.45;;;2.78;;
11191;SDS011;5652;48.406;10.820;2023-12-07T13:56:36;3.88;;;2.67;;
11191;SDS011;5652;48.406;10.820;2023-12-07T13:59:03;4.10;;;2.50;;
11191;SDS011;5652;48.406;10.820;2023-12-07T14:01:32;3.72;;;2.92;;
11191;SDS011;5652;48.406;10.820;2023-12-07T14:04:00;4.03;;;2.90;;
11191;SDS011;5652;48.406;10.820;2023-12-07T14:06:28;4.30;;;3.15;;
11191;SDS011;5652;48.406;10.820;2023-12-07T14:08:55;3.78;;;2.90;;
11191;SDS011;5652;48.406;10.820;2023-12-07T14:11:23;5.47;;;2.92;;
11191;SDS011;5652;48.406;10.820;2023-12-07T14:13:51;4.25;;;3.00;;
11191;SDS011;5652;48.406;10.820;2023-12-07T14:16:19;4.05;;;2.60;;
11191;SDS011;5652;48.406;10.820;2023-12-07T14:18:46;3.63;;;2.78;;
11191;SDS011;5652;48.406;10.820;2023-12-07T14:21:18;4.07;;;2.75;;
11191;SDS011;5652;48.406;10.820;2023-12-07T14:23:45;4.00;;;2.90;;
11191;SDS011;5652;48.406;10.820;2023-12-07T14:26:13;4.10;;;3.03;;
11191;SDS011;5652;48.406;10.820;2023-12-07T14:28:41;4.05;;;2.97;;
11191;SDS011;5652;48.406;10.820;2023-12-07T14:31:08;4.15;;;3.28;;
11191;SDS011;5652;48.406;10.820;2023-12-07T14:33:41;4.35;;;3.58;;
11191;SDS011;5652;48.406;10.820;2023-12-07T14:36:09;3.95;;;3.20;;
11191;SDS011;5652;48.406;10.820;2023-12-07T14:38:37;4.80;;;3.20;;
11191;SDS011;5652;48.406;10.820;2023-12-07T14:41:06;4.22;;;3.40;;
11191;SDS011;5652;48.406;10.820;2023-12-07T14:43:33;4.70;;;3.83;;